Pine Grove Furnace, Pennsylvania
Current Conditions -  °F | °C
As of 11:44 AM on Monday 26 Jan 2015 (Local Time) from KTHV Reporting Station
Light Snow Light Snow  
Wind Chill: 15°   Ceiling: 1600
Heat Index: 25°   Visibility: 1mi
Dew Point: 21°   Wind: 10mph
Humidity: 85%   Direction: 70°ENE
Pressure: 29.82"   Gusts: NA
Location:  40.0362°N, 77.1908°W
Report Text: KTHV 261644Z AUTO 07009KT 1SM -SN BR BKN016 OVC022 M04/M06 A2982 RMK AO2 SNB04 P0000 T10391061
Loading
Personal Weather Stations






























Interactive Weather Map New forecast layout! Learn more

10-Day Weather Forecast

Advertisements
Track Severe Weather on mobile